Oxelosund, Sweden
Current Conditions -  °F | °C
As of 9:50 AM on Wednesday 28 Jan 2015 (Local Time) from ESKN Reporting Station
Broken Clouds Broken Clouds  
Wind Chill: 26°   Ceiling: 900
Heat Index: 34°   Visibility: 6mi
Dew Point: 34°   Wind: 10mph
Humidity: 100%   Direction: 220°SW
Pressure: 29.44"   Gusts: NA
Location:  58.67°N, 17.1°E
Report Text: ESKN 280850Z 22009KT 9999 BKN009 01/01 Q0997 R26/710163
Loading
Personal Weather Stations






























Interactive Weather Map New forecast layout! Learn more

10-Day Weather Forecast

Advertisements
Track Severe Weather on mobile